createdAt,value
2018-11-20T00:02:10.666Z,4.77
2018-11-20T00:05:18.125Z,6.40
2018-11-20T00:08:25.548Z,5.87
2018-11-20T00:11:32.897Z,6.63
2018-11-20T00:14:26.927Z,5.67
2018-11-20T00:17:34.472Z,6.20
2018-11-20T00:20:41.913Z,5.73
2018-11-20T00:23:49.267Z,6.20
2018-11-20T00:26:56.621Z,6.47
2018-11-20T00:30:03.980Z,5.27
2018-11-20T00:33:11.371Z,7.47
2018-11-20T00:36:18.706Z,6.80
2018-11-20T00:39:26.621Z,7.93
2018-11-20T00:42:34.022Z,7.30
2018-11-20T00:45:36.336Z,5.23
2018-11-20T00:48:44.073Z,7.50
2018-11-20T00:51:51.421Z,6.03
2018-11-20T00:54:58.931Z,8.50
2018-11-20T00:57:37.908Z,6.40
2018-11-20T01:00:45.254Z,8.40
2018-11-20T01:03:52.562Z,8.20
2018-11-20T01:06:59.893Z,9.40
2018-11-20T01:10:07.252Z,8.50
2018-11-20T01:13:14.664Z,8.17
2018-11-20T01:16:22.014Z,9.80
2018-11-20T01:19:29.313Z,7.43
2018-11-20T01:22:37.144Z,6.63
2018-11-20T01:25:44.473Z,9.30
2018-11-20T01:28:51.965Z,7.57
2018-11-20T01:31:59.325Z,8.17
2018-11-20T01:35:06.702Z,7.77
2018-11-20T01:38:14.128Z,8.53
2018-11-20T01:41:21.569Z,8.43
2018-11-20T01:44:29.046Z,9.90
2018-11-20T01:47:36.485Z,9.83
2018-11-20T01:50:43.995Z,10.17
2018-11-20T01:53:41.812Z,9.70
2018-11-20T01:56:49.126Z,11.33
2018-11-20T01:59:56.482Z,10.93
2018-11-20T02:03:04.106Z,11.47
2018-11-20T02:06:11.456Z,12.57
2018-11-20T02:09:18.780Z,11.97
2018-11-20T02:12:26.185Z,12.20
2018-11-20T02:15:33.561Z,12.07
2018-11-20T02:18:40.913Z,11.70
2018-11-20T02:21:46.688Z,14.03
2018-11-20T02:24:35.157Z,12.37
2018-11-20T02:27:32.861Z,14.00
2018-11-20T02:30:14.668Z,11.70
2018-11-20T02:33:12.372Z,13.43
2018-11-20T02:36:09.793Z,12.43
2018-11-20T02:38:58.283Z,13.47
2018-11-20T02:41:45.104Z,12.70
2018-11-20T02:44:32.008Z,13.00
2018-11-20T02:47:26.210Z,14.03
2018-11-20T02:50:17.531Z,11.27
2018-11-20T02:53:08.872Z,14.13
2018-11-20T02:55:46.215Z,10.37
2018-11-20T02:58:33.164Z,15.07
2018-11-20T03:01:24.224Z,12.13
2018-11-20T03:04:21.399Z,14.50
2018-11-20T03:07:03.696Z,15.43
2018-11-20T03:09:52.098Z,14.17
2018-11-20T03:12:40.515Z,13.67
2018-11-20T03:15:37.807Z,15.33
2018-11-20T03:18:44.548Z,12.70
2018-11-20T03:21:24.282Z,12.67
2018-11-20T03:24:15.647Z,15.00
2018-11-20T03:27:02.581Z,15.37
2018-11-20T03:30:29.416Z,15.30
2018-11-20T03:33:35.964Z,14.27
2018-11-20T03:36:24.432Z,9.83
2018-11-20T03:39:14.167Z,12.70
2018-11-20T03:42:06.873Z,14.53
2018-11-20T03:45:01.173Z,12.50
2018-11-20T03:47:49.126Z,15.13
2018-11-20T03:50:37.656Z,13.77
2018-11-20T03:53:18.582Z,15.80
2018-11-20T03:56:10.088Z,14.93
2018-11-20T03:59:04.981Z,15.07
2018-11-20T04:02:12.251Z,13.37
2018-11-20T04:04:55.769Z,11.77
2018-11-20T04:07:47.162Z,13.03
2018-11-20T04:10:38.211Z,13.13
2018-11-20T04:13:32.850Z,10.83
2018-11-20T04:16:20.085Z,10.23
2018-11-20T04:19:02.965Z,13.93
2018-11-20T04:21:50.467Z,12.57
2018-11-20T04:24:48.450Z,10.70
2018-11-20T04:27:44.911Z,11.43
2018-11-20T04:30:58.296Z,12.37
2018-11-20T04:34:01.477Z,11.10
2018-11-20T04:36:56.943Z,10.80
2018-11-20T04:39:43.563Z,11.37
2018-11-20T04:42:31.261Z,11.87
2018-11-20T04:45:18.744Z,12.40
2018-11-20T04:48:16.260Z,10.70
2018-11-20T04:51:03.860Z,11.20
2018-11-20T04:53:52.999Z,11.73
2018-11-20T04:56:54.012Z,10.47
2018-11-20T04:59:34.489Z,10.33
2018-11-20T05:02:15.605Z,10.03
2018-11-20T05:04:55.674Z,8.93
2018-11-20T05:07:57.752Z,10.93
2018-11-20T05:10:56.856Z,9.73
2018-11-20T05:13:51.876Z,10.77
2018-11-20T05:16:59.172Z,11.20
2018-11-20T05:20:06.221Z,11.13
2018-11-20T05:22:53.886Z,10.37
2018-11-20T05:25:45.954Z,10.80
2018-11-20T05:28:53.500Z,11.70
2018-11-20T05:31:54.513Z,12.03
2018-11-20T05:34:40.768Z,9.77
2018-11-20T05:37:28.191Z,12.07
2018-11-20T05:40:10.135Z,11.43
2018-11-20T05:42:57.789Z,10.87
2018-11-20T05:45:52.874Z,9.97
2018-11-20T05:48:40.730Z,11.00
2018-11-20T05:51:32.315Z,10.87
2018-11-20T05:54:19.595Z,9.80
2018-11-20T05:57:11.369Z,9.97
2018-11-20T06:00:00.181Z,10.27
2018-11-20T06:03:00.724Z,10.70
2018-11-20T06:06:02.050Z,11.43
2018-11-20T06:09:02.937Z,11.27
2018-11-20T06:11:57.548Z,13.13
2018-11-20T06:14:58.500Z,11.13
2018-11-20T06:17:51.556Z,11.80
2018-11-20T06:20:37.460Z,10.37
2018-11-20T06:23:31.925Z,9.37
2018-11-20T06:26:21.115Z,11.30
2018-11-20T06:29:09.541Z,10.13
2018-11-20T06:32:01.436Z,11.70
2018-11-20T06:34:39.015Z,10.73
2018-11-20T06:37:27.833Z,13.27
2018-11-20T06:40:15.570Z,12.23
2018-11-20T06:43:02.770Z,14.33
2018-11-20T06:45:51.444Z,7.93
2018-11-20T06:48:43.474Z,12.50
2018-11-20T06:51:37.220Z,11.83
2018-11-20T06:54:41.639Z,11.10
2018-11-20T06:57:33.405Z,12.37
2018-11-20T07:00:33.970Z,11.27
2018-11-20T07:03:21.714Z,12.77
2018-11-20T07:06:28.611Z,12.80
2018-11-20T07:09:29.363Z,13.13
2018-11-20T07:12:23.848Z,13.13
2018-11-20T07:15:22.937Z,9.80
2018-11-20T07:18:20.071Z,10.90
2018-11-20T07:21:14.523Z,12.10
2018-11-20T07:24:03.053Z,12.27
2018-11-20T07:26:50.269Z,7.97
2018-11-20T07:29:37.981Z,12.40
2018-11-20T07:32:29.242Z,11.57
2018-11-20T07:35:26.548Z,9.40
2018-11-20T07:38:20.735Z,13.00
2018-11-20T07:41:21.260Z,12.73
2018-11-20T07:44:12.742Z,11.77
2018-11-20T07:47:00.238Z,13.87
2018-11-20T07:49:57.714Z,14.50
2018-11-20T07:53:04.495Z,14.07
2018-11-20T07:55:58.985Z,12.60
2018-11-20T07:58:41.815Z,12.20
2018-11-20T08:01:23.780Z,12.83
2018-11-20T08:04:18.057Z,12.50
2018-11-20T08:07:09.453Z,12.63
2018-11-20T08:10:07.207Z,12.47
2018-11-20T08:13:05.030Z,12.43
2018-11-20T08:15:59.916Z,12.83
2018-11-20T08:18:46.989Z,11.20
2018-11-20T08:21:35.999Z,13.93
2018-11-20T08:24:43.526Z,13.10
2018-11-20T08:27:51.092Z,12.90
2018-11-20T08:30:58.680Z,12.53
2018-11-20T08:34:06.203Z,15.47
2018-11-20T08:37:13.728Z,11.97
2018-11-20T08:40:21.167Z,13.47
2018-11-20T08:43:28.730Z,15.07
2018-11-20T08:46:36.257Z,14.07
2018-11-20T08:49:43.881Z,14.57
2018-11-20T08:52:51.438Z,12.30
2018-11-20T08:55:58.845Z,13.63
2018-11-20T08:59:06.387Z,11.47
2018-11-20T09:02:13.969Z,11.87
2018-11-20T09:08:40.460Z,15.83
2018-11-20T09:11:47.982Z,16.17
2018-11-20T09:14:55.406Z,13.63
2018-11-20T09:18:03.000Z,14.27
2018-11-20T09:21:10.388Z,11.13
2018-11-20T09:24:17.722Z,14.30
2018-11-20T09:27:25.357Z,13.27
2018-11-20T09:30:32.665Z,13.30
2018-11-20T09:33:40.119Z,14.47
2018-11-20T09:36:47.611Z,12.40
2018-11-20T09:40:14.270Z,13.23
2018-11-20T09:44:02.677Z,14.73
2018-11-20T09:46:27.923Z,13.20
2018-11-20T09:49:35.388Z,13.53
2018-11-20T09:52:42.862Z,13.90
2018-11-20T09:55:50.150Z,12.33
2018-11-20T09:58:57.502Z,14.03
2018-11-20T10:02:04.883Z,13.40
2018-11-20T10:08:01.655Z,13.30
2018-11-20T10:11:09.007Z,13.33
2018-11-20T10:14:08.659Z,12.70
2018-11-20T10:17:15.888Z,13.00
2018-11-20T10:20:23.681Z,12.50
2018-11-20T10:23:31.158Z,13.73
2018-11-20T10:26:38.521Z,12.10
2018-11-20T10:29:46.569Z,13.87
2018-11-20T10:32:54.016Z,11.17
2018-11-20T10:36:01.605Z,13.87
2018-11-20T10:39:09.321Z,12.57
2018-11-20T10:42:16.666Z,12.73
2018-11-20T10:45:24.098Z,13.47
2018-11-20T10:48:31.483Z,15.07
2018-11-20T10:51:27.087Z,13.50
2018-11-20T10:54:34.471Z,14.07
2018-11-20T10:57:41.917Z,15.07
2018-11-20T11:00:49.296Z,10.13
2018-11-20T11:03:56.803Z,12.70
2018-11-20T11:07:04.455Z,13.77
2018-11-20T11:09:57.364Z,14.53
2018-11-20T11:13:04.852Z,13.23
2018-11-20T11:16:12.299Z,12.70
2018-11-20T11:19:19.970Z,14.73
2018-11-20T11:22:27.709Z,13.73
2018-11-20T11:25:35.220Z,15.37
2018-11-20T11:28:42.836Z,14.30
2018-11-20T11:31:50.375Z,12.07
2018-11-20T11:34:57.941Z,12.93
2018-11-20T11:41:16.694Z,13.53
2018-11-20T11:44:24.527Z,12.73
2018-11-20T11:47:31.943Z,14.20
2018-11-20T11:50:39.336Z,13.47
2018-11-20T11:53:46.803Z,11.60
2018-11-20T11:56:54.268Z,14.63
2018-11-20T12:00:01.963Z,10.50
2018-11-20T12:06:16.096Z,9.20
2018-11-20T12:09:23.637Z,12.97
2018-11-20T12:12:12.230Z,14.23
2018-11-20T12:15:19.705Z,11.93
2018-11-20T12:18:27.179Z,11.00
2018-11-20T12:21:34.651Z,10.83
2018-11-20T12:27:07.485Z,14.23
2018-11-20T12:29:57.328Z,13.03
2018-11-20T12:35:40.275Z,13.90
2018-11-20T12:38:19.635Z,14.23
2018-11-20T12:41:28.307Z,13.77
2018-11-20T12:44:33.600Z,13.67
2018-11-20T12:47:43.078Z,14.27
2018-11-20T12:50:48.245Z,12.90
2018-11-20T12:53:57.783Z,14.13
2018-11-20T12:57:02.876Z,12.90
2018-11-20T13:00:10.200Z,12.83
2018-11-20T13:03:17.563Z,13.17
2018-11-20T13:06:24.910Z,15.93
2018-11-20T13:09:32.471Z,15.70
2018-11-20T13:12:39.786Z,12.37
2018-11-20T13:15:49.289Z,13.73
2018-11-20T13:18:54.549Z,14.47
2018-11-20T13:22:01.819Z,14.13
2018-11-20T13:25:09.524Z,14.83
2018-11-20T13:28:16.483Z,14.67
2018-11-20T13:31:23.873Z,15.93
2018-11-20T13:34:31.116Z,14.20
2018-11-20T13:37:29.040Z,14.90
2018-11-20T13:40:28.880Z,16.37
2018-11-20T13:43:20.387Z,15.53
2018-11-20T13:46:09.011Z,15.97
2018-11-20T13:49:01.383Z,17.07
2018-11-20T13:52:07.674Z,18.40
2018-11-20T13:55:00.477Z,15.20
2018-11-20T13:57:59.935Z,15.80
2018-11-20T14:01:00.042Z,15.73
2018-11-20T14:04:00.189Z,15.67
2018-11-20T14:07:00.250Z,14.70
2018-11-20T14:10:00.256Z,14.73
2018-11-20T14:13:00.305Z,15.07
2018-11-20T14:16:00.517Z,16.13
2018-11-20T14:18:59.851Z,15.97
2018-11-20T14:22:02.146Z,15.77
2018-11-20T14:24:58.062Z,15.90
2018-11-20T14:27:49.221Z,17.90
2018-11-20T14:30:55.772Z,18.20
2018-11-20T14:33:59.461Z,16.67
2018-11-20T14:36:46.496Z,16.50
2018-11-20T14:39:52.994Z,19.40
2018-11-20T14:42:40.071Z,17.87
2018-11-20T14:45:20.505Z,18.00
2018-11-20T14:48:07.914Z,17.90
2018-11-20T14:51:02.500Z,14.23
2018-11-20T14:53:48.207Z,14.67
2018-11-20T14:56:54.606Z,16.70
2018-11-20T14:59:43.002Z,18.30
2018-11-20T15:02:24.209Z,15.10
2018-11-20T15:05:20.720Z,16.40
2018-11-20T15:08:11.867Z,14.33
2018-11-20T15:11:00.245Z,16.70
2018-11-20T15:13:51.672Z,14.83
2018-11-20T15:16:33.600Z,13.53
2018-11-20T15:19:34.122Z,12.43
2018-11-20T15:22:13.880Z,15.30
2018-11-20T15:25:04.927Z,19.73
2018-11-20T15:27:43.428Z,12.37
2018-11-20T15:30:30.862Z,8.03
2018-11-20T15:33:17.924Z,12.27
2018-11-20T15:36:06.392Z,11.93
2018-11-20T15:38:53.555Z,8.90
2018-11-20T15:41:41.955Z,9.47
2018-11-20T15:44:23.136Z,11.13
2018-11-20T15:47:10.306Z,9.57
2018-11-20T15:49:57.226Z,9.27
2018-11-20T15:52:54.383Z,8.50
2018-11-20T15:55:41.512Z,8.67
2018-11-20T15:58:38.881Z,8.93
2018-11-20T16:01:28.505Z,8.20
2018-11-20T16:04:15.375Z,9.90
2018-11-20T16:07:06.418Z,6.60
2018-11-20T16:10:09.749Z,8.67
2018-11-20T16:12:52.403Z,7.47
2018-11-20T16:15:59.364Z,6.77
2018-11-20T16:18:50.706Z,6.47
2018-11-20T16:21:39.174Z,5.83
2018-11-20T16:24:30.515Z,6.87
2018-11-20T16:27:31.205Z,4.90
2018-11-20T16:30:19.577Z,6.60
2018-11-20T16:33:06.911Z,4.83
2018-11-20T16:35:44.235Z,6.73
2018-11-20T16:38:32.771Z,5.40
2018-11-20T16:41:27.378Z,6.00
2018-11-20T16:44:14.577Z,6.07
2018-11-20T16:47:01.735Z,6.47
2018-11-20T16:49:55.889Z,5.87
2018-11-20T16:52:43.130Z,5.87
2018-11-20T16:55:30.188Z,6.40
2018-11-20T16:58:17.341Z,4.97
2018-11-20T17:01:14.738Z,5.47
2018-11-20T17:03:57.363Z,5.40
2018-11-20T17:06:51.730Z,3.83
2018-11-20T17:09:38.762Z,7.57
2018-11-20T17:12:35.911Z,4.93
2018-11-20T17:15:31.687Z,6.10
2018-11-20T17:18:32.131Z,6.13
2018-11-20T17:21:20.789Z,6.20
2018-11-20T17:24:14.923Z,6.63
2018-11-20T17:27:16.265Z,6.43
2018-11-20T17:29:56.265Z,6.27
2018-11-20T17:32:42.934Z,7.23
2018-11-20T17:35:46.408Z,5.80
2018-11-20T17:38:47.047Z,6.07
2018-11-20T17:41:30.249Z,5.57
2018-11-20T17:44:18.464Z,7.13
2018-11-20T17:47:13.654Z,6.70
2018-11-20T17:49:55.434Z,6.77
2018-11-20T17:52:44.554Z,6.43
2018-11-20T17:55:31.775Z,8.43
2018-11-20T17:58:26.249Z,4.93
2018-11-20T18:01:17.347Z,7.77
2018-11-20T18:04:23.897Z,7.37
2018-11-20T18:07:12.340Z,7.00
2018-11-20T18:10:03.270Z,7.47
2018-11-20T18:12:51.727Z,6.17
2018-11-20T18:15:43.045Z,8.20
2018-11-20T18:18:34.699Z,8.20
2018-11-20T18:21:32.358Z,9.00
2018-11-20T18:24:23.426Z,8.57
2018-11-20T18:27:18.997Z,9.63
2018-11-20T18:30:09.481Z,9.63
2018-11-20T18:32:56.851Z,8.10
2018-11-20T18:35:43.793Z,8.73
2018-11-20T18:38:34.971Z,9.30
2018-11-20T18:41:22.027Z,9.80
2018-11-20T18:44:10.667Z,8.93
2018-11-20T18:46:54.090Z,9.13
2018-11-20T18:49:46.106Z,8.63
2018-11-20T18:52:34.623Z,10.30
2018-11-20T18:55:23.254Z,11.43
2018-11-20T18:58:10.283Z,9.47
2018-11-20T19:01:04.836Z,9.63
2018-11-20T19:03:51.078Z,9.07
2018-11-20T19:06:48.688Z,10.23
2018-11-20T19:09:55.399Z,9.70
2018-11-20T19:12:52.589Z,9.67
2018-11-20T19:15:39.943Z,12.53
2018-11-20T19:18:24.646Z,11.33
2018-11-20T19:21:06.296Z,11.43
2018-11-20T19:23:53.545Z,9.40
2018-11-20T19:26:47.774Z,9.47
2018-11-20T19:29:38.963Z,9.37
2018-11-20T19:32:35.421Z,10.67
2018-11-20T19:35:22.836Z,11.23
2018-11-20T19:38:10.128Z,11.57
2018-11-20T19:40:57.800Z,9.40
2018-11-20T19:43:48.912Z,11.17
2018-11-20T19:46:46.161Z,11.77
2018-11-20T19:49:40.677Z,11.37
2018-11-20T19:52:41.480Z,11.67
2018-11-20T19:55:28.677Z,12.57
2018-11-20T19:58:13.488Z,13.13
2018-11-20T20:01:20.329Z,10.87
2018-11-20T20:04:08.800Z,10.17
2018-11-20T20:06:57.227Z,11.73
2018-11-20T20:09:48.397Z,11.07
2018-11-20T20:12:28.597Z,13.03
2018-11-20T20:15:27.794Z,10.63
2018-11-20T20:18:14.804Z,11.57
2018-11-20T20:21:09.069Z,12.87
2018-11-20T20:24:12.778Z,11.43
2018-11-20T20:27:04.161Z,12.73
2018-11-20T20:29:51.480Z,14.63
2018-11-20T20:32:38.555Z,11.13
2018-11-20T20:35:22.976Z,13.60
2018-11-20T20:38:11.391Z,13.10
2018-11-20T20:41:09.176Z,13.30
2018-11-20T20:44:09.742Z,14.73
2018-11-20T20:47:02.721Z,13.47
2018-11-20T20:49:43.705Z,13.53
2018-11-20T20:52:32.202Z,13.17
2018-11-20T20:55:23.677Z,13.50
2018-11-20T20:58:10.779Z,13.73
2018-11-20T21:01:00.713Z,13.10
2018-11-20T21:03:49.475Z,14.50
2018-11-20T21:06:46.009Z,14.27
2018-11-20T21:09:27.608Z,15.87
2018-11-20T21:12:16.861Z,14.37
2018-11-20T21:15:05.267Z,15.87
2018-11-20T21:17:52.579Z,12.63
2018-11-20T21:20:53.028Z,15.10
2018-11-20T21:23:41.457Z,14.17
2018-11-20T21:26:29.867Z,13.43
2018-11-20T21:29:24.111Z,15.30
2018-11-20T21:32:15.266Z,14.17
2018-11-20T21:35:19.173Z,14.37
2018-11-20T21:38:10.046Z,15.20
2018-11-20T21:41:00.568Z,13.37
2018-11-20T21:44:04.262Z,13.57
2018-11-20T21:46:47.796Z,10.20
2018-11-20T21:49:35.131Z,14.70
2018-11-20T21:52:23.599Z,14.33
2018-11-20T21:55:18.135Z,13.53
2018-11-20T21:58:18.394Z,14.97
2018-11-20T22:01:12.343Z,8.47
2018-11-20T22:03:59.389Z,15.33
2018-11-20T22:06:46.362Z,14.87
2018-11-20T22:09:33.382Z,12.97
2018-11-20T22:12:20.466Z,13.67
2018-11-20T22:15:06.797Z,13.20
2018-11-20T22:18:10.672Z,12.80
2018-11-20T22:21:14.385Z,12.33
2018-11-20T22:24:08.958Z,11.73
2018-11-20T22:26:56.584Z,12.87
2018-11-20T22:29:45.309Z,11.97
2018-11-20T22:32:35.462Z,11.63
2018-11-20T22:35:24.750Z,14.10
2018-11-20T22:38:08.871Z,11.30
2018-11-20T22:40:59.753Z,13.33
2018-11-20T22:43:46.846Z,10.20
2018-11-20T22:46:41.117Z,13.70
2018-11-20T22:49:38.450Z,10.50
2018-11-20T22:52:25.765Z,9.93
2018-11-20T22:55:06.990Z,14.43
2018-11-20T22:58:09.031Z,11.23
2018-11-20T23:00:49.074Z,13.07
2018-11-20T23:03:40.526Z,12.23
2018-11-20T23:06:25.670Z,13.77
2018-11-20T23:08:55.356Z,9.23
2018-11-20T23:11:25.045Z,10.83
2018-11-20T23:13:55.141Z,11.47
2018-11-20T23:16:24.824Z,13.60
2018-11-20T23:18:54.539Z,12.53
2018-11-20T23:21:24.271Z,13.10
2018-11-20T23:23:53.954Z,12.93
2018-11-20T23:26:23.646Z,10.43
2018-11-20T23:28:53.286Z,11.60
2018-11-20T23:31:22.979Z,11.47
2018-11-20T23:33:52.892Z,13.27
2018-11-20T23:36:22.590Z,14.23
2018-11-20T23:38:52.281Z,12.93
2018-11-20T23:41:21.970Z,11.80
2018-11-20T23:43:51.609Z,9.13
2018-11-20T23:46:21.301Z,12.87
2018-11-20T23:48:51.014Z,10.73
2018-11-20T23:51:20.745Z,11.77
2018-11-20T23:53:50.444Z,11.50
2018-11-20T23:56:20.153Z,13.03
2018-11-20T23:58:49.875Z,13.20
